sensor_id;sensor_type;location;lat;lon;timestamp;P1;durP1;ratioP1;P2;durP2;ratioP2
17422;SDS011;8829;47.932;7.810;2023-01-10T00:01:27;2.40;;;1.20;;
17422;SDS011;8829;47.932;7.810;2023-01-10T00:03:54;1.73;;;1.40;;
17422;SDS011;8829;47.932;7.810;2023-01-10T00:06:20;1.70;;;1.20;;
17422;SDS011;8829;47.932;7.810;2023-01-10T00:08:47;1.17;;;1.00;;
17422;SDS011;8829;47.932;7.810;2023-01-10T00:11:14;1.00;;;1.00;;
17422;SDS011;8829;47.932;7.810;2023-01-10T00:13:59;1.17;;;1.00;;
17422;SDS011;8829;47.932;7.810;2023-01-10T00:16:26;3.80;;;1.70;;
17422;SDS011;8829;47.932;7.810;2023-01-10T00:18:53;1.53;;;1.20;;
17422;SDS011;8829;47.932;7.810;2023-01-10T00:21:19;2.37;;;1.20;;
17422;SDS011;8829;47.932;7.810;2023-01-10T00:23:46;2.20;;;1.23;;
17422;SDS011;8829;47.932;7.810;2023-01-10T00:26:14;3.03;;;1.57;;
17422;SDS011;8829;47.932;7.810;2023-01-10T00:28:40;2.07;;;1.30;;
17422;SDS011;8829;47.932;7.810;2023-01-10T00:31:09;1.20;;;1.07;;
17422;SDS011;8829;47.932;7.810;2023-01-10T00:33:37;1.37;;;1.03;;
17422;SDS011;8829;47.932;7.810;2023-01-10T00:36:05;2.43;;;1.37;;
17422;SDS011;8829;47.932;7.810;2023-01-10T00:38:33;4.93;;;1.20;;
17422;SDS011;8829;47.932;7.810;2023-01-10T00:41:01;5.50;;;1.77;;
17422;SDS011;8829;47.932;7.810;2023-01-10T00:43:49;3.03;;;1.50;;
17422;SDS011;8829;47.932;7.810;2023-01-10T00:46:22;3.33;;;1.03;;
17422;SDS011;8829;47.932;7.810;2023-01-10T00:48:49;1.37;;;1.20;;
17422;SDS011;8829;47.932;7.810;2023-01-10T00:51:16;4.60;;;1.27;;
17422;SDS011;8829;47.932;7.810;2023-01-10T00:53:43;0.93;;;0.93;;
17422;SDS011;8829;47.932;7.810;2023-01-10T00:56:09;1.20;;;0.87;;
17422;SDS011;8829;47.932;7.810;2023-01-10T00:58:36;1.00;;;1.00;;
17422;SDS011;8829;47.932;7.810;2023-01-10T01:01:03;0.83;;;0.83;;
17422;SDS011;8829;47.932;7.810;2023-01-10T01:03:32;0.70;;;0.70;;
17422;SDS011;8829;47.932;7.810;2023-01-10T01:06:02;0.87;;;0.80;;
17422;SDS011;8829;47.932;7.810;2023-01-10T01:08:29;3.03;;;1.33;;
17422;SDS011;8829;47.932;7.810;2023-01-10T01:10:55;1.43;;;1.00;;
17422;SDS011;8829;47.932;7.810;2023-01-10T01:13:22;1.63;;;1.47;;
17422;SDS011;8829;47.932;7.810;2023-01-10T01:15:49;1.90;;;1.30;;
17422;SDS011;8829;47.932;7.810;2023-01-10T01:18:17;1.50;;;1.10;;
17422;SDS011;8829;47.932;7.810;2023-01-10T01:20:51;1.70;;;1.00;;
17422;SDS011;8829;47.932;7.810;2023-01-10T01:23:19;4.60;;;2.30;;
17422;SDS011;8829;47.932;7.810;2023-01-10T01:25:48;2.70;;;1.13;;
17422;SDS011;8829;47.932;7.810;2023-01-10T01:28:15;3.37;;;1.00;;
17422;SDS011;8829;47.932;7.810;2023-01-10T01:30:42;1.47;;;1.20;;
17422;SDS011;8829;47.932;7.810;2023-01-10T01:33:09;5.83;;;1.20;;
17422;SDS011;8829;47.932;7.810;2023-01-10T01:35:36;3.00;;;1.37;;
17422;SDS011;8829;47.932;7.810;2023-01-10T01:38:04;1.77;;;1.53;;
17422;SDS011;8829;47.932;7.810;2023-01-10T01:40:30;2.43;;;1.50;;
17422;SDS011;8829;47.932;7.810;2023-01-10T01:42:57;7.70;;;3.33;;
17422;SDS011;8829;47.932;7.810;2023-01-10T01:45:35;6.00;;;3.80;;
17422;SDS011;8829;47.932;7.810;2023-01-10T01:48:17;10.47;;;6.00;;
17422;SDS011;8829;47.932;7.810;2023-01-10T01:50:50;9.83;;;5.77;;
17422;SDS011;8829;47.932;7.810;2023-01-10T01:53:23;6.53;;;3.63;;
17422;SDS011;8829;47.932;7.810;2023-01-10T01:55:54;5.33;;;2.93;;
17422;SDS011;8829;47.932;7.810;2023-01-10T01:58:27;4.37;;;3.87;;
17422;SDS011;8829;47.932;7.810;2023-01-10T02:01:01;6.10;;;3.60;;
17422;SDS011;8829;47.932;7.810;2023-01-10T02:03:29;4.23;;;3.53;;
17422;SDS011;8829;47.932;7.810;2023-01-10T02:05:57;1.80;;;1.63;;
17422;SDS011;8829;47.932;7.810;2023-01-10T02:08:26;3.70;;;1.80;;
17422;SDS011;8829;47.932;7.810;2023-01-10T02:10:54;5.17;;;1.77;;
17422;SDS011;8829;47.932;7.810;2023-01-10T02:13:26;5.43;;;2.23;;
17422;SDS011;8829;47.932;7.810;2023-01-10T02:15:53;5.03;;;1.97;;
17422;SDS011;8829;47.932;7.810;2023-01-10T02:18:20;1.40;;;1.30;;
17422;SDS011;8829;47.932;7.810;2023-01-10T02:20:53;8.97;;;2.20;;
17422;SDS011;8829;47.932;7.810;2023-01-10T02:23:35;7.23;;;2.03;;
17422;SDS011;8829;47.932;7.810;2023-01-10T02:26:29;5.77;;;2.23;;
17422;SDS011;8829;47.932;7.810;2023-01-10T02:29:25;6.17;;;1.97;;
17422;SDS011;8829;47.932;7.810;2023-01-10T02:32:18;5.30;;;1.87;;
17422;SDS011;8829;47.932;7.810;2023-01-10T02:34:52;2.60;;;1.40;;
17422;SDS011;8829;47.932;7.810;2023-01-10T02:37:35;4.87;;;2.33;;
17422;SDS011;8829;47.932;7.810;2023-01-10T02:40:12;1.93;;;1.53;;
17422;SDS011;8829;47.932;7.810;2023-01-10T02:42:45;5.77;;;2.73;;
17422;SDS011;8829;47.932;7.810;2023-01-10T02:45:18;3.67;;;2.07;;
17422;SDS011;8829;47.932;7.810;2023-01-10T02:47:54;2.50;;;1.40;;
17422;SDS011;8829;47.932;7.810;2023-01-10T02:50:24;3.63;;;1.57;;
17422;SDS011;8829;47.932;7.810;2023-01-10T02:52:55;5.40;;;1.70;;
17422;SDS011;8829;47.932;7.810;2023-01-10T02:55:25;8.60;;;3.13;;
17422;SDS011;8829;47.932;7.810;2023-01-10T02:58:00;2.67;;;2.07;;
17422;SDS011;8829;47.932;7.810;2023-01-10T03:00:41;2.13;;;1.93;;
17422;SDS011;8829;47.932;7.810;2023-01-10T03:03:18;4.70;;;1.70;;
17422;SDS011;8829;47.932;7.810;2023-01-10T03:05:58;2.60;;;2.00;;
17422;SDS011;8829;47.932;7.810;2023-01-10T03:08:36;2.33;;;1.13;;
17422;SDS011;8829;47.932;7.810;2023-01-10T03:11:07;2.97;;;1.87;;
17422;SDS011;8829;47.932;7.810;2023-01-10T03:13:35;6.50;;;1.30;;
17422;SDS011;8829;47.932;7.810;2023-01-10T03:16:09;4.67;;;1.43;;
17422;SDS011;8829;47.932;7.810;2023-01-10T03:18:42;1.60;;;1.20;;
17422;SDS011;8829;47.932;7.810;2023-01-10T03:21:13;2.90;;;1.77;;
17422;SDS011;8829;47.932;7.810;2023-01-10T03:23:41;4.93;;;1.13;;
17422;SDS011;8829;47.932;7.810;2023-01-10T03:26:09;4.13;;;1.57;;
17422;SDS011;8829;47.932;7.810;2023-01-10T03:28:38;3.93;;;1.33;;
17422;SDS011;8829;47.932;7.810;2023-01-10T03:31:12;5.00;;;1.30;;
17422;SDS011;8829;47.932;7.810;2023-01-10T03:33:42;2.20;;;1.37;;
17422;SDS011;8829;47.932;7.810;2023-01-10T03:36:10;1.03;;;0.90;;
17422;SDS011;8829;47.932;7.810;2023-01-10T03:38:45;5.60;;;1.73;;
17422;SDS011;8829;47.932;7.810;2023-01-10T03:41:19;3.40;;;1.30;;
17422;SDS011;8829;47.932;7.810;2023-01-10T03:43:56;1.97;;;1.30;;
17422;SDS011;8829;47.932;7.810;2023-01-10T03:46:51;1.77;;;1.57;;
17422;SDS011;8829;47.932;7.810;2023-01-10T03:49:24;2.17;;;1.40;;
17422;SDS011;8829;47.932;7.810;2023-01-10T03:51:53;4.70;;;1.20;;
17422;SDS011;8829;47.932;7.810;2023-01-10T03:54:23;1.40;;;1.30;;
17422;SDS011;8829;47.932;7.810;2023-01-10T03:56:50;2.20;;;1.57;;
17422;SDS011;8829;47.932;7.810;2023-01-10T03:59:17;3.37;;;1.57;;
17422;SDS011;8829;47.932;7.810;2023-01-10T04:01:48;1.57;;;1.10;;
17422;SDS011;8829;47.932;7.810;2023-01-10T04:04:14;3.20;;;1.40;;
17422;SDS011;8829;47.932;7.810;2023-01-10T04:06:43;3.03;;;1.00;;
17422;SDS011;8829;47.932;7.810;2023-01-10T04:09:09;4.37;;;1.53;;
17422;SDS011;8829;47.932;7.810;2023-01-10T04:11:36;1.03;;;0.80;;
17422;SDS011;8829;47.932;7.810;2023-01-10T04:14:03;1.97;;;1.10;;
17422;SDS011;8829;47.932;7.810;2023-01-10T04:16:30;3.30;;;1.23;;
17422;SDS011;8829;47.932;7.810;2023-01-10T04:18:56;5.90;;;1.50;;
17422;SDS011;8829;47.932;7.810;2023-01-10T04:21:23;2.13;;;1.10;;
17422;SDS011;8829;47.932;7.810;2023-01-10T04:23:51;2.13;;;1.20;;
17422;SDS011;8829;47.932;7.810;2023-01-10T04:26:18;2.30;;;1.30;;
17422;SDS011;8829;47.932;7.810;2023-01-10T04:28:45;3.63;;;1.10;;
17422;SDS011;8829;47.932;7.810;2023-01-10T04:31:11;4.07;;;1.30;;
17422;SDS011;8829;47.932;7.810;2023-01-10T04:33:38;1.73;;;1.07;;
17422;SDS011;8829;47.932;7.810;2023-01-10T04:36:05;5.00;;;1.20;;
17422;SDS011;8829;47.932;7.810;2023-01-10T04:38:32;1.57;;;1.00;;
17422;SDS011;8829;47.932;7.810;2023-01-10T04:41:00;1.73;;;1.00;;
17422;SDS011;8829;47.932;7.810;2023-01-10T04:43:27;2.43;;;0.97;;
17422;SDS011;8829;47.932;7.810;2023-01-10T04:45:54;2.97;;;1.23;;
17422;SDS011;8829;47.932;7.810;2023-01-10T04:48:20;6.17;;;1.23;;
17422;SDS011;8829;47.932;7.810;2023-01-10T04:50:48;3.43;;;1.50;;
17422;SDS011;8829;47.932;7.810;2023-01-10T04:53:15;3.97;;;1.17;;
17422;SDS011;8829;47.932;7.810;2023-01-10T04:55:42;3.70;;;1.20;;
17422;SDS011;8829;47.932;7.810;2023-01-10T04:58:10;3.93;;;1.40;;
17422;SDS011;8829;47.932;7.810;2023-01-10T05:00:37;2.40;;;1.00;;
17422;SDS011;8829;47.932;7.810;2023-01-10T05:03:04;4.00;;;1.10;;
17422;SDS011;8829;47.932;7.810;2023-01-10T05:05:31;3.00;;;1.10;;
17422;SDS011;8829;47.932;7.810;2023-01-10T05:07:58;2.50;;;1.37;;
17422;SDS011;8829;47.932;7.810;2023-01-10T05:10:24;4.10;;;1.07;;
17422;SDS011;8829;47.932;7.810;2023-01-10T05:12:51;2.77;;;1.77;;
17422;SDS011;8829;47.932;7.810;2023-01-10T05:15:19;3.67;;;1.30;;
17422;SDS011;8829;47.932;7.810;2023-01-10T05:17:47;3.50;;;2.23;;
17422;SDS011;8829;47.932;7.810;2023-01-10T05:20:15;2.67;;;1.10;;
17422;SDS011;8829;47.932;7.810;2023-01-10T05:22:42;4.17;;;2.60;;
17422;SDS011;8829;47.932;7.810;2023-01-10T05:25:09;12.57;;;5.13;;
17422;SDS011;8829;47.932;7.810;2023-01-10T05:27:39;7.67;;;4.50;;
17422;SDS011;8829;47.932;7.810;2023-01-10T05:30:08;5.70;;;4.07;;
17422;SDS011;8829;47.932;7.810;2023-01-10T05:32:37;6.10;;;3.97;;
17422;SDS011;8829;47.932;7.810;2023-01-10T05:35:04;4.93;;;2.90;;
17422;SDS011;8829;47.932;7.810;2023-01-10T05:37:31;4.87;;;2.20;;
17422;SDS011;8829;47.932;7.810;2023-01-10T05:39:58;1.63;;;1.40;;
17422;SDS011;8829;47.932;7.810;2023-01-10T05:42:24;7.13;;;1.90;;
17422;SDS011;8829;47.932;7.810;2023-01-10T05:44:51;1.33;;;1.20;;
17422;SDS011;8829;47.932;7.810;2023-01-10T05:47:18;3.20;;;1.30;;
17422;SDS011;8829;47.932;7.810;2023-01-10T05:49:46;3.60;;;1.00;;
17422;SDS011;8829;47.932;7.810;2023-01-10T05:52:13;2.13;;;1.30;;
17422;SDS011;8829;47.932;7.810;2023-01-10T05:54:40;3.67;;;1.20;;
17422;SDS011;8829;47.932;7.810;2023-01-10T05:57:07;3.67;;;1.40;;
17422;SDS011;8829;47.932;7.810;2023-01-10T05:59:34;6.03;;;1.47;;
17422;SDS011;8829;47.932;7.810;2023-01-10T06:02:00;4.40;;;1.60;;
17422;SDS011;8829;47.932;7.810;2023-01-10T06:04:27;2.40;;;1.40;;
17422;SDS011;8829;47.932;7.810;2023-01-10T06:06:55;1.33;;;1.27;;
17422;SDS011;8829;47.932;7.810;2023-01-10T06:09:22;2.53;;;1.50;;
17422;SDS011;8829;47.932;7.810;2023-01-10T06:11:48;3.70;;;1.07;;
17422;SDS011;8829;47.932;7.810;2023-01-10T06:14:15;2.40;;;1.30;;
17422;SDS011;8829;47.932;7.810;2023-01-10T06:16:43;1.20;;;1.10;;
17422;SDS011;8829;47.932;7.810;2023-01-10T06:19:09;2.27;;;1.10;;
17422;SDS011;8829;47.932;7.810;2023-01-10T06:21:36;5.57;;;1.30;;
17422;SDS011;8829;47.932;7.810;2023-01-10T06:24:05;3.10;;;1.73;;
17422;SDS011;8829;47.932;7.810;2023-01-10T06:26:32;4.47;;;1.17;;
17422;SDS011;8829;47.932;7.810;2023-01-10T06:28:59;3.20;;;1.20;;
17422;SDS011;8829;47.932;7.810;2023-01-10T06:31:26;1.57;;;0.90;;
17422;SDS011;8829;47.932;7.810;2023-01-10T06:33:53;1.03;;;0.97;;
17422;SDS011;8829;47.932;7.810;2023-01-10T06:36:20;3.07;;;1.17;;
17422;SDS011;8829;47.932;7.810;2023-01-10T06:38:46;1.40;;;1.23;;
17422;SDS011;8829;47.932;7.810;2023-01-10T06:41:14;4.33;;;1.10;;
17422;SDS011;8829;47.932;7.810;2023-01-10T06:43:41;4.60;;;1.07;;
17422;SDS011;8829;47.932;7.810;2023-01-10T06:46:10;1.10;;;1.03;;
17422;SDS011;8829;47.932;7.810;2023-01-10T06:48:37;3.37;;;1.13;;
17422;SDS011;8829;47.932;7.810;2023-01-10T06:51:04;2.87;;;1.30;;
17422;SDS011;8829;47.932;7.810;2023-01-10T06:53:31;2.77;;;1.10;;
17422;SDS011;8829;47.932;7.810;2023-01-10T06:55:58;1.93;;;1.00;;
17422;SDS011;8829;47.932;7.810;2023-01-10T06:58:26;2.10;;;0.87;;
17422;SDS011;8829;47.932;7.810;2023-01-10T07:00:52;2.43;;;1.07;;
17422;SDS011;8829;47.932;7.810;2023-01-10T07:03:19;3.63;;;1.20;;
17422;SDS011;8829;47.932;7.810;2023-01-10T07:05:46;2.83;;;1.40;;
17422;SDS011;8829;47.932;7.810;2023-01-10T07:08:12;1.73;;;1.30;;
17422;SDS011;8829;47.932;7.810;2023-01-10T07:10:39;1.37;;;1.27;;
17422;SDS011;8829;47.932;7.810;2023-01-10T07:13:06;1.73;;;1.40;;
17422;SDS011;8829;47.932;7.810;2023-01-10T07:15:35;3.67;;;1.37;;
17422;SDS011;8829;47.932;7.810;2023-01-10T07:18:01;3.40;;;1.03;;
17422;SDS011;8829;47.932;7.810;2023-01-10T07:20:28;5.43;;;1.30;;
17422;SDS011;8829;47.932;7.810;2023-01-10T07:22:55;3.17;;;1.30;;
17422;SDS011;8829;47.932;7.810;2023-01-10T07:25:24;3.30;;;1.37;;
17422;SDS011;8829;47.932;7.810;2023-01-10T07:27:51;3.73;;;1.17;;
17422;SDS011;8829;47.932;7.810;2023-01-10T07:30:19;2.03;;;1.10;;
17422;SDS011;8829;47.932;7.810;2023-01-10T07:32:52;4.10;;;1.20;;
17422;SDS011;8829;47.932;7.810;2023-01-10T07:35:19;2.00;;;1.60;;
17422;SDS011;8829;47.932;7.810;2023-01-10T07:37:46;4.20;;;1.30;;
17422;SDS011;8829;47.932;7.810;2023-01-10T07:40:13;1.83;;;1.30;;
17422;SDS011;8829;47.932;7.810;2023-01-10T07:42:40;5.23;;;1.50;;
17422;SDS011;8829;47.932;7.810;2023-01-10T07:45:07;2.50;;;1.17;;
17422;SDS011;8829;47.932;7.810;2023-01-10T07:47:34;2.90;;;1.20;;
17422;SDS011;8829;47.932;7.810;2023-01-10T07:50:02;2.27;;;1.40;;
17422;SDS011;8829;47.932;7.810;2023-01-10T07:52:29;4.87;;;1.80;;
17422;SDS011;8829;47.932;7.810;2023-01-10T07:54:57;4.30;;;1.30;;
17422;SDS011;8829;47.932;7.810;2023-01-10T07:57:24;3.30;;;1.30;;
17422;SDS011;8829;47.932;7.810;2023-01-10T07:59:50;1.83;;;1.20;;
17422;SDS011;8829;47.932;7.810;2023-01-10T08:02:18;4.20;;;2.13;;
17422;SDS011;8829;47.932;7.810;2023-01-10T08:04:45;1.97;;;1.00;;
17422;SDS011;8829;47.932;7.810;2023-01-10T08:07:13;3.73;;;1.30;;
17422;SDS011;8829;47.932;7.810;2023-01-10T08:09:40;5.00;;;1.80;;
17422;SDS011;8829;47.932;7.810;2023-01-10T08:12:07;3.67;;;1.40;;
17422;SDS011;8829;47.932;7.810;2023-01-10T08:14:33;1.10;;;1.00;;
17422;SDS011;8829;47.932;7.810;2023-01-10T08:17:00;4.90;;;1.83;;
17422;SDS011;8829;47.932;7.810;2023-01-10T08:19:27;3.00;;;1.67;;
17422;SDS011;8829;47.932;7.810;2023-01-10T08:21:53;4.00;;;1.93;;
17422;SDS011;8829;47.932;7.810;2023-01-10T08:24:21;7.63;;;2.03;;
17422;SDS011;8829;47.932;7.810;2023-01-10T08:26:48;4.97;;;1.50;;
17422;SDS011;8829;47.932;7.810;2023-01-10T08:29:15;3.90;;;1.70;;
17422;SDS011;8829;47.932;7.810;2023-01-10T08:31:41;5.30;;;1.60;;
17422;SDS011;8829;47.932;7.810;2023-01-10T08:34:08;5.30;;;1.40;;
17422;SDS011;8829;47.932;7.810;2023-01-10T08:36:37;3.87;;;1.67;;
17422;SDS011;8829;47.932;7.810;2023-01-10T08:39:04;4.20;;;1.87;;
17422;SDS011;8829;47.932;7.810;2023-01-10T08:41:32;5.90;;;2.17;;
17422;SDS011;8829;47.932;7.810;2023-01-10T08:43:58;8.47;;;2.13;;
17422;SDS011;8829;47.932;7.810;2023-01-10T08:46:25;21.47;;;8.70;;
17422;SDS011;8829;47.932;7.810;2023-01-10T08:48:52;15.93;;;6.77;;
17422;SDS011;8829;47.932;7.810;2023-01-10T08:51:19;15.10;;;5.87;;
17422;SDS011;8829;47.932;7.810;2023-01-10T08:53:45;3.53;;;2.57;;
17422;SDS011;8829;47.932;7.810;2023-01-10T08:56:12;10.53;;;4.53;;
17422;SDS011;8829;47.932;7.810;2023-01-10T08:58:40;6.73;;;3.43;;
17422;SDS011;8829;47.932;7.810;2023-01-10T09:01:07;9.97;;;3.40;;
17422;SDS011;8829;47.932;7.810;2023-01-10T09:03:36;10.07;;;4.77;;
17422;SDS011;8829;47.932;7.810;2023-01-10T09:06:03;7.60;;;4.20;;
17422;SDS011;8829;47.932;7.810;2023-01-10T09:08:32;8.47;;;4.13;;
17422;SDS011;8829;47.932;7.810;2023-01-10T09:10:59;9.43;;;4.73;;
17422;SDS011;8829;47.932;7.810;2023-01-10T09:13:26;9.07;;;5.17;;
17422;SDS011;8829;47.932;7.810;2023-01-10T09:15:55;12.70;;;7.47;;
17422;SDS011;8829;47.932;7.810;2023-01-10T09:18:22;15.83;;;8.13;;
17422;SDS011;8829;47.932;7.810;2023-01-10T09:20:49;7.70;;;2.77;;
17422;SDS011;8829;47.932;7.810;2023-01-10T09:23:17;3.63;;;2.30;;
17422;SDS011;8829;47.932;7.810;2023-01-10T09:25:46;6.03;;;1.77;;
17422;SDS011;8829;47.932;7.810;2023-01-10T09:28:14;3.10;;;1.47;;
17422;SDS011;8829;47.932;7.810;2023-01-10T09:30:42;2.97;;;1.60;;
17422;SDS011;8829;47.932;7.810;2023-01-10T09:33:10;2.27;;;1.23;;
17422;SDS011;8829;47.932;7.810;2023-01-10T09:35:38;1.87;;;1.40;;
17422;SDS011;8829;47.932;7.810;2023-01-10T09:38:07;4.47;;;1.53;;
17422;SDS011;8829;47.932;7.810;2023-01-10T09:40:42;7.53;;;1.63;;
17422;SDS011;8829;47.932;7.810;2023-01-10T09:43:25;3.23;;;1.40;;
17422;SDS011;8829;47.932;7.810;2023-01-10T09:46:01;1.50;;;1.40;;
17422;SDS011;8829;47.932;7.810;2023-01-10T09:48:36;2.33;;;1.20;;
17422;SDS011;8829;47.932;7.810;2023-01-10T09:51:12;2.80;;;1.70;;
17422;SDS011;8829;47.932;7.810;2023-01-10T09:53:49;4.50;;;1.67;;
17422;SDS011;8829;47.932;7.810;2023-01-10T09:56:23;7.50;;;1.67;;
17422;SDS011;8829;47.932;7.810;2023-01-10T09:58:50;4.10;;;1.67;;
17422;SDS011;8829;47.932;7.810;2023-01-10T10:01:18;1.90;;;1.70;;
17422;SDS011;8829;47.932;7.810;2023-01-10T10:03:50;2.53;;;1.50;;
17422;SDS011;8829;47.932;7.810;2023-01-10T10:06:24;6.50;;;1.50;;
17422;SDS011;8829;47.932;7.810;2023-01-10T10:08:51;4.00;;;2.00;;
17422;SDS011;8829;47.932;7.810;2023-01-10T10:11:27;4.13;;;1.77;;
17422;SDS011;8829;47.932;7.810;2023-01-10T10:14:15;5.43;;;1.63;;
17422;SDS011;8829;47.932;7.810;2023-01-10T10:16:55;2.70;;;1.60;;
17422;SDS011;8829;47.932;7.810;2023-01-10T10:19:33;4.87;;;1.57;;
17422;SDS011;8829;47.932;7.810;2023-01-10T10:22:11;6.73;;;1.37;;
17422;SDS011;8829;47.932;7.810;2023-01-10T10:24:49;4.13;;;1.30;;
17422;SDS011;8829;47.932;7.810;2023-01-10T10:27:23;7.03;;;2.20;;
17422;SDS011;8829;47.932;7.810;2023-01-10T10:30:11;6.77;;;2.00;;
17422;SDS011;8829;47.932;7.810;2023-01-10T10:35:49;5.17;;;1.90;;
17422;SDS011;8829;47.932;7.810;2023-01-10T10:38:23;6.67;;;2.00;;
17422;SDS011;8829;47.932;7.810;2023-01-10T10:40:53;8.00;;;2.80;;
17422;SDS011;8829;47.932;7.810;2023-01-10T10:43:21;8.80;;;1.83;;
17422;SDS011;8829;47.932;7.810;2023-01-10T10:45:53;7.67;;;1.90;;
17422;SDS011;8829;47.932;7.810;2023-01-10T10:48:23;8.67;;;2.83;;
17422;SDS011;8829;47.932;7.810;2023-01-10T10:51:07;5.00;;;2.10;;
17422;SDS011;8829;47.932;7.810;2023-01-10T10:53:37;7.13;;;2.13;;
17422;SDS011;8829;47.932;7.810;2023-01-10T10:56:05;4.87;;;1.87;;
17422;SDS011;8829;47.932;7.810;2023-01-10T10:58:36;10.50;;;2.07;;
17422;SDS011;8829;47.932;7.810;2023-01-10T11:01:05;5.43;;;2.00;;
17422;SDS011;8829;47.932;7.810;2023-01-10T11:03:37;7.37;;;2.00;;
17422;SDS011;8829;47.932;7.810;2023-01-10T11:06:09;5.73;;;2.30;;
17422;SDS011;8829;47.932;7.810;2023-01-10T11:08:36;9.80;;;2.80;;
17422;SDS011;8829;47.932;7.810;2023-01-10T11:11:09;5.73;;;3.37;;
17422;SDS011;8829;47.932;7.810;2023-01-10T11:13:43;4.63;;;1.93;;
17422;SDS011;8829;47.932;7.810;2023-01-10T11:16:22;11.53;;;2.30;;
17422;SDS011;8829;47.932;7.810;2023-01-10T11:19:08;4.53;;;1.70;;
17422;SDS011;8829;47.932;7.810;2023-01-10T11:21:38;7.93;;;1.90;;
17422;SDS011;8829;47.932;7.810;2023-01-10T11:24:12;3.27;;;1.90;;
17422;SDS011;8829;47.932;7.810;2023-01-10T11:26:46;4.87;;;1.80;;
17422;SDS011;8829;47.932;7.810;2023-01-10T11:29:14;8.47;;;1.93;;
17422;SDS011;8829;47.932;7.810;2023-01-10T11:31:44;5.97;;;1.80;;
17422;SDS011;8829;47.932;7.810;2023-01-10T11:34:19;3.90;;;1.77;;
17422;SDS011;8829;47.932;7.810;2023-01-10T11:36:54;3.30;;;1.27;;
17422;SDS011;8829;47.932;7.810;2023-01-10T11:39:22;1.57;;;1.40;;
17422;SDS011;8829;47.932;7.810;2023-01-10T11:41:49;9.10;;;3.73;;
17422;SDS011;8829;47.932;7.810;2023-01-10T11:44:20;8.63;;;4.17;;
17422;SDS011;8829;47.932;7.810;2023-01-10T11:46:51;9.87;;;5.10;;
17422;SDS011;8829;47.932;7.810;2023-01-10T11:49:23;7.37;;;1.93;;
17422;SDS011;8829;47.932;7.810;2023-01-10T11:51:57;4.97;;;2.10;;
17422;SDS011;8829;47.932;7.810;2023-01-10T11:54:27;11.50;;;4.23;;
17422;SDS011;8829;47.932;7.810;2023-01-10T11:56:57;8.13;;;2.70;;
17422;SDS011;8829;47.932;7.810;2023-01-10T11:59:25;9.47;;;4.43;;
17422;SDS011;8829;47.932;7.810;2023-01-10T12:01:54;5.57;;;2.03;;
17422;SDS011;8829;47.932;7.810;2023-01-10T12:04:24;9.43;;;3.47;;
17422;SDS011;8829;47.932;7.810;2023-01-10T12:06:56;10.53;;;3.20;;
17422;SDS011;8829;47.932;7.810;2023-01-10T12:09:32;9.30;;;3.10;;
17422;SDS011;8829;47.932;7.810;2023-01-10T12:12:01;6.30;;;2.53;;
17422;SDS011;8829;47.932;7.810;2023-01-10T12:14:29;6.53;;;2.03;;
17422;SDS011;8829;47.932;7.810;2023-01-10T12:16:57;18.73;;;4.23;;
17422;SDS011;8829;47.932;7.810;2023-01-10T12:19:25;4.90;;;1.73;;
17422;SDS011;8829;47.932;7.810;2023-01-10T12:21:53;5.37;;;2.27;;
17422;SDS011;8829;47.932;7.810;2023-01-10T12:24:25;5.80;;;2.40;;
17422;SDS011;8829;47.932;7.810;2023-01-10T12:26:56;6.17;;;1.80;;
17422;SDS011;8829;47.932;7.810;2023-01-10T12:29:27;8.83;;;2.10;;
17422;SDS011;8829;47.932;7.810;2023-01-10T12:31:56;6.30;;;2.03;;
17422;SDS011;8829;47.932;7.810;2023-01-10T12:34:25;5.60;;;2.07;;
17422;SDS011;8829;47.932;7.810;2023-01-10T12:37:06;6.77;;;2.37;;
17422;SDS011;8829;47.932;7.810;2023-01-10T12:39:39;4.57;;;1.83;;
17422;SDS011;8829;47.932;7.810;2023-01-10T12:42:13;7.07;;;2.10;;
17422;SDS011;8829;47.932;7.810;2023-01-10T12:45:07;5.10;;;1.90;;
17422;SDS011;8829;47.932;7.810;2023-01-10T12:47:47;3.27;;;1.20;;
17422;SDS011;8829;47.932;7.810;2023-01-10T12:50:22;4.47;;;2.67;;
17422;SDS011;8829;47.932;7.810;2023-01-10T12:52:56;5.40;;;2.27;;
17422;SDS011;8829;47.932;7.810;2023-01-10T12:55:26;3.83;;;1.73;;
17422;SDS011;8829;47.932;7.810;2023-01-10T12:57:56;4.77;;;1.50;;
17422;SDS011;8829;47.932;7.810;2023-01-10T13:00:28;4.33;;;1.53;;
17422;SDS011;8829;47.932;7.810;2023-01-10T13:02:58;3.60;;;1.40;;
17422;SDS011;8829;47.932;7.810;2023-01-10T13:05:26;4.03;;;1.40;;
17422;SDS011;8829;47.932;7.810;2023-01-10T13:07:58;7.13;;;1.60;;
17422;SDS011;8829;47.932;7.810;2023-01-10T13:10:28;6.17;;;2.43;;
17422;SDS011;8829;47.932;7.810;2023-01-10T13:13:00;9.57;;;2.70;;
17422;SDS011;8829;47.932;7.810;2023-01-10T13:15:31;5.10;;;2.00;;
17422;SDS011;8829;47.932;7.810;2023-01-10T13:18:04;5.37;;;3.13;;
17422;SDS011;8829;47.932;7.810;2023-01-10T13:20:41;4.40;;;2.33;;
17422;SDS011;8829;47.932;7.810;2023-01-10T13:23:28;2.37;;;1.53;;
17422;SDS011;8829;47.932;7.810;2023-01-10T13:26:01;3.23;;;2.00;;
17422;SDS011;8829;47.932;7.810;2023-01-10T13:28:30;4.77;;;1.70;;
17422;SDS011;8829;47.932;7.810;2023-01-10T13:31:00;4.07;;;1.27;;
17422;SDS011;8829;47.932;7.810;2023-01-10T13:33:28;4.30;;;1.47;;
17422;SDS011;8829;47.932;7.810;2023-01-10T13:35:57;5.47;;;1.57;;
17422;SDS011;8829;47.932;7.810;2023-01-10T13:38:38;6.57;;;3.13;;
17422;SDS011;8829;47.932;7.810;2023-01-10T13:41:13;4.40;;;2.00;;
17422;SDS011;8829;47.932;7.810;2023-01-10T13:43:58;3.67;;;2.03;;
17422;SDS011;8829;47.932;7.810;2023-01-10T13:46:31;3.70;;;2.10;;
17422;SDS011;8829;47.932;7.810;2023-01-10T13:49:25;5.23;;;1.73;;
17422;SDS011;8829;47.932;7.810;2023-01-10T14:01:25;1.70;;;1.10;;
17422;SDS011;8829;47.932;7.810;2023-01-10T14:04:18;4.60;;;1.20;;
17422;SDS011;8829;47.932;7.810;2023-01-10T14:06:50;2.63;;;1.20;;
17422;SDS011;8829;47.932;7.810;2023-01-10T14:12:18;5.20;;;1.00;;
17422;SDS011;8829;47.932;7.810;2023-01-10T14:14:51;1.77;;;1.40;;
17422;SDS011;8829;47.932;7.810;2023-01-10T14:17:21;5.60;;;1.20;;
17422;SDS011;8829;47.932;7.810;2023-01-10T14:19:57;4.77;;;1.93;;
17422;SDS011;8829;47.932;7.810;2023-01-10T14:22:40;2.67;;;1.57;;
17422;SDS011;8829;47.932;7.810;2023-01-10T14:25:21;3.50;;;1.40;;
17422;SDS011;8829;47.932;7.810;2023-01-10T14:27:50;2.83;;;0.97;;
17422;SDS011;8829;47.932;7.810;2023-01-10T14:30:21;2.70;;;1.20;;
17422;SDS011;8829;47.932;7.810;2023-01-10T14:32:52;5.33;;;1.53;;
17422;SDS011;8829;47.932;7.810;2023-01-10T14:35:23;4.03;;;1.37;;
17422;SDS011;8829;47.932;7.810;2023-01-10T14:37:53;6.30;;;1.30;;
17422;SDS011;8829;47.932;7.810;2023-01-10T14:40:24;2.60;;;1.40;;
17422;SDS011;8829;47.932;7.810;2023-01-10T14:42:53;3.23;;;1.00;;
17422;SDS011;8829;47.932;7.810;2023-01-10T14:45:32;2.17;;;1.00;;
17422;SDS011;8829;47.932;7.810;2023-01-10T14:48:16;2.60;;;1.20;;
17422;SDS011;8829;47.932;7.810;2023-01-10T14:51:05;5.43;;;1.67;;
17422;SDS011;8829;47.932;7.810;2023-01-10T14:53:40;2.03;;;1.10;;
17422;SDS011;8829;47.932;7.810;2023-01-10T14:56:16;2.20;;;0.90;;
17422;SDS011;8829;47.932;7.810;2023-01-10T14:58:43;2.40;;;1.03;;
17422;SDS011;8829;47.932;7.810;2023-01-10T15:01:11;1.10;;;1.10;;
17422;SDS011;8829;47.932;7.810;2023-01-10T15:03:46;5.57;;;1.50;;
17422;SDS011;8829;47.932;7.810;2023-01-10T15:06:13;4.23;;;1.00;;
17422;SDS011;8829;47.932;7.810;2023-01-10T15:08:39;3.07;;;1.30;;
17422;SDS011;8829;47.932;7.810;2023-01-10T15:11:06;3.87;;;1.37;;
17422;SDS011;8829;47.932;7.810;2023-01-10T15:13:42;3.60;;;1.57;;
17422;SDS011;8829;47.932;7.810;2023-01-10T15:16:16;4.53;;;1.40;;
17422;SDS011;8829;47.932;7.810;2023-01-10T15:18:45;6.13;;;2.07;;
17422;SDS011;8829;47.932;7.810;2023-01-10T15:21:12;4.13;;;1.30;;
17422;SDS011;8829;47.932;7.810;2023-01-10T15:23:41;4.10;;;1.30;;
17422;SDS011;8829;47.932;7.810;2023-01-10T15:26:09;3.73;;;1.40;;
17422;SDS011;8829;47.932;7.810;2023-01-10T15:28:40;5.57;;;2.13;;
17422;SDS011;8829;47.932;7.810;2023-01-10T15:31:07;5.20;;;3.03;;
17422;SDS011;8829;47.932;7.810;2023-01-10T15:33:42;3.43;;;1.40;;
17422;SDS011;8829;47.932;7.810;2023-01-10T15:36:19;4.47;;;1.63;;